Time;durP1;ratioP1;P1;durP2;ratioP2;P2;SDS_P1;SDS_P2;PMS_P1;PMS_P2;Temp;Humidity;BMP_temperature;BMP_pressure;BME280_temperature;BME280_humidity;BME280_pressure;Samples;Min_cycle;Max_cycle;Signal;HPM_P1;HPM_P2
2022/10/21 00:01:35;;;;;;;2.60;1.83;;;14.60;82.70;;;;;;5103619;28;20399;-69
2022/10/21 00:04:02;;;;;;;2.72;2.28;;;14.60;82.70;;;;;;5091309;28;20028;-69
2022/10/21 00:06:28;;;;;;;3.40;2.00;;;14.70;82.70;;;;;;5098321;28;20024;-69
2022/10/21 00:08:54;;;;;;;3.00;2.70;;;14.70;82.70;;;;;;5103535;28;20115;-69
2022/10/21 00:11:19;;;;;;;2.58;2.20;;;14.70;82.80;;;;;;5093221;28;20495;-67
2022/10/21 00:13:45;;;;;;;7.32;2.78;;;14.80;82.90;;;;;;5078837;28;20032;-67
2022/10/21 00:16:14;;;;;;;3.50;2.35;;;14.80;82.80;;;;;;5106992;28;20031;-69
2022/10/21 00:18:41;;;;;;;7.85;2.80;;;14.80;82.80;;;;;;5101105;28;20470;-69
2022/10/21 00:21:10;;;;;;;3.83;2.70;;;14.90;82.90;;;;;;5100882;28;20129;-69
2022/10/21 00:23:36;;;;;;;5.72;2.92;;;14.90;82.90;;;;;;5097955;28;20630;-69
2022/10/21 00:26:02;;;;;;;3.50;2.58;;;14.90;83.00;;;;;;5113944;28;20019;-69
2022/10/21 00:28:27;;;;;;;2.53;2.10;;;14.90;83.00;;;;;;5092392;28;20036;-69
2022/10/21 00:30:54;;;;;;;2.70;2.45;;;14.90;83.10;;;;;;5093022;28;20028;-69
2022/10/21 00:33:19;;;;;;;3.97;2.42;;;14.90;83.10;;;;;;5097461;28;20024;-67
2022/10/21 00:35:53;;;;;;;5.00;2.63;;;14.90;83.20;;;;;;5090160;28;20039;-67
2022/10/21 00:38:19;;;;;;;4.60;2.72;;;14.90;83.20;;;;;;5090593;28;20031;-67
2022/10/21 00:40:45;;;;;;;3.75;2.45;;;15.00;83.30;;;;;;5085913;28;20036;-69
2022/10/21 00:43:11;;;;;;;2.78;2.17;;;15.00;83.30;;;;;;5098255;28;20036;-69
2022/10/21 00:45:37;;;;;;;3.15;2.30;;;15.00;83.30;;;;;;5098033;28;20035;-69
2022/10/21 00:48:11;;;;;;;3.20;2.28;;;15.00;83.30;;;;;;5073714;28;20082;-69
2022/10/21 00:51:00;;;;;;;4.72;2.80;;;15.00;83.30;;;;;;5103993;28;20485;-69
2022/10/21 00:53:27;;;;;;;5.85;3.08;;;15.10;83.30;;;;;;5092630;28;20027;-67
2022/10/21 00:56:00;;;;;;;3.55;2.20;;;15.00;83.30;;;;;;5096500;28;20046;-67
2022/10/21 00:58:29;;;;;;;4.72;2.75;;;15.10;83.30;;;;;;5111565;28;20085;-67
2022/10/21 01:00:57;;;;;;;3.15;2.10;;;15.10;83.30;;;;;;5090719;28;20055;-67
2022/10/21 01:03:25;;;;;;;4.40;2.65;;;15.10;83.40;;;;;;5074894;28;20037;-69
2022/10/21 01:05:52;;;;;;;3.83;2.50;;;15.10;83.40;;;;;;5088524;28;20116;-69
2022/10/21 01:08:19;;;;;;;3.65;2.85;;;15.10;84.00;;;;;;5112140;28;20470;-69
2022/10/21 01:10:45;;;;;;;4.13;3.00;;;15.10;83.50;;;;;;5097517;28;20682;-69
2022/10/21 01:13:27;;;;;;;3.35;2.83;;;15.10;83.50;;;;;;5109965;28;20011;-69
2022/10/21 01:16:15;;;;;;;4.90;2.67;;;15.10;83.50;;;;;;5099925;28;20036;-69
2022/10/21 01:18:40;;;;;;;8.43;2.75;;;15.10;83.60;;;;;;5092438;28;20056;-69
2022/10/21 01:21:10;;;;;;;6.82;2.17;;;15.00;83.70;;;;;;5097335;28;20028;-69
2022/10/21 01:24:09;;;;;;;3.55;2.45;;;15.00;83.80;;;;;;5091569;28;20028;-69
2022/10/21 01:27:12;;;;;;;4.72;2.55;;;15.00;83.80;;;;;;5081020;28;20029;-69
2022/10/21 01:30:08;;;;;;;3.40;2.58;;;14.90;83.80;;;;;;5089667;28;20032;-67
2022/10/21 01:32:57;;;;;;;4.13;2.30;;;14.90;84.00;;;;;;5089853;28;20020;-69
2022/10/21 01:35:44;;;;;;;3.63;2.55;;;14.80;84.00;;;;;;5088680;28;20443;-69
2022/10/21 01:38:31;;;;;;;5.05;3.45;;;14.80;84.00;;;;;;5104314;28;20076;-69
2022/10/21 01:41:06;;;;;;;5.60;2.90;;;14.80;84.10;;;;;;5082160;28;20027;-69
2022/10/21 01:43:51;;;;;;;4.20;2.70;;;14.70;84.20;;;;;;5081380;28;20554;-69
2022/10/21 01:46:28;;;;;;;4.72;3.03;;;14.60;84.30;;;;;;5087998;28;20522;-69
2022/10/21 01:49:02;;;;;;;5.20;2.72;;;14.60;84.40;;;;;;5089577;28;20460;-69
2022/10/21 01:51:30;;;;;;;3.30;2.45;;;14.50;84.50;;;;;;5085856;28;20038;-67
2022/10/21 01:54:09;;;;;;;3.58;2.47;;;14.50;84.60;;;;;;5109508;28;20024;-69
2022/10/21 01:56:37;;;;;;;5.53;2.47;;;14.50;84.50;;;;;;5084505;28;20031;-69
2022/10/21 01:59:06;;;;;;;5.03;2.58;;;14.50;84.50;;;;;;5089125;28;20024;-68
2022/10/21 02:01:34;;;;;;;3.78;2.53;;;14.50;84.50;;;;;;5089325;28;20475;-69
2022/10/21 02:04:02;;;;;;;4.20;2.83;;;14.50;84.40;;;;;;5102135;28;20399;-69
2022/10/21 02:06:28;;;;;;;4.70;2.33;;;14.50;84.40;;;;;;5100600;28;20030;-69
2022/10/21 02:08:53;;;;;;;3.60;2.72;;;14.50;84.40;;;;;;5110265;28;20027;-69
2022/10/21 02:11:19;;;;;;;4.82;3.05;;;14.50;84.40;;;;;;5094345;28;20036;-69
2022/10/21 02:13:56;;;;;;;3.63;2.67;;;14.50;84.40;;;;;;5100893;28;20032;-69
2022/10/21 02:16:27;;;;;;;4.07;2.28;;;14.50;84.40;;;;;;5088172;28;20035;-67
2022/10/21 02:18:54;;;;;;;3.05;2.15;;;14.50;84.40;;;;;;5092189;28;20101;-67
2022/10/21 02:21:24;;;;;;;4.78;2.53;;;14.50;84.30;;;;;;5104494;28;20020;-67
2022/10/21 02:23:54;;;;;;;3.83;2.75;;;14.50;84.30;;;;;;5090817;28;20372;-67
2022/10/21 02:26:21;;;;;;;4.88;2.60;;;14.50;84.40;;;;;;5090618;28;20450;-69
2022/10/21 02:28:48;;;;;;;3.15;2.60;;;14.50;84.30;;;;;;5087019;28;20031;-69
2022/10/21 02:31:28;;;;;;;3.47;2.40;;;14.50;84.40;;;;;;5096823;28;20081;-69
2022/10/21 02:34:05;;;;;;;3.78;2.80;;;14.40;84.40;;;;;;5076045;28;20024;-69
2022/10/21 02:36:38;;;;;;;4.20;2.42;;;14.40;84.30;;;;;;5088524;28;20024;-67
2022/10/21 02:39:17;;;;;;;3.40;2.25;;;14.40;84.40;;;;;;5081158;28;20032;-67
2022/10/21 02:41:44;;;;;;;3.13;2.38;;;14.30;84.30;;;;;;5089474;28;20052;-67
2022/10/21 02:44:10;;;;;;;4.40;2.40;;;14.30;84.30;;;;;;5087360;28;20529;-67
2022/10/21 02:46:41;;;;;;;2.85;2.00;;;14.20;84.30;;;;;;5088306;28;20052;-69
2022/10/21 02:49:08;;;;;;;3.67;2.65;;;14.20;84.20;;;;;;5089504;28;20073;-69
2022/10/21 02:51:34;;;;;;;4.25;2.50;;;14.20;84.30;;;;;;5091908;28;20024;-69
2022/10/21 02:53:59;;;;;;;7.25;2.03;;;14.10;84.10;;;;;;5091254;28;20092;-67
2022/10/21 02:56:26;;;;;;;4.10;2.58;;;14.10;84.20;;;;;;5096186;28;20036;-69
2022/10/21 02:58:52;;;;;;;5.93;2.83;;;14.10;84.00;;;;;;5104800;28;20047;-69
2022/10/21 03:01:17;;;;;;;3.17;2.00;;;14.00;84.00;;;;;;5109854;28;20028;-69
2022/10/21 03:03:43;;;;;;;6.35;2.13;;;14.00;84.10;;;;;;5092803;28;20074;-69
2022/10/21 03:06:09;;;;;;;2.95;1.88;;;14.00;84.10;;;;;;5107487;28;20019;-69
2022/10/21 03:08:35;;;;;;;3.28;2.58;;;13.90;84.10;;;;;;5100921;28;20028;-69
2022/10/21 03:11:00;;;;;;;3.90;2.38;;;13.90;84.00;;;;;;5098450;28;20028;-67
2022/10/21 03:13:26;;;;;;;3.63;2.67;;;13.90;84.00;;;;;;5090438;28;20036;-67
2022/10/21 03:15:51;;;;;;;2.70;2.05;;;13.90;84.10;;;;;;5092794;28;20032;-67
2022/10/21 03:18:17;;;;;;;7.82;2.95;;;13.90;84.00;;;;;;5092733;28;20036;-67
2022/10/21 03:20:43;;;;;;;5.07;2.25;;;13.80;83.90;;;;;;5069627;28;20540;-67
2022/10/21 03:23:09;;;;;;;3.05;2.13;;;13.90;84.00;;;;;;5092370;28;20108;-67
2022/10/21 03:25:35;;;;;;;4.70;2.53;;;13.80;83.90;;;;;;5090185;28;20087;-67
2022/10/21 03:28:01;;;;;;;4.00;2.40;;;13.80;83.90;;;;;;5092923;28;20465;-67
2022/10/21 03:30:26;;;;;;;5.93;2.60;;;13.80;83.90;;;;;;5097704;28;20028;-67
2022/10/21 03:32:52;;;;;;;2.92;2.40;;;13.80;83.90;;;;;;5093297;28;20363;-67
2022/10/21 03:35:18;;;;;;;3.53;2.33;;;13.80;83.90;;;;;;5090964;28;20028;-67
2022/10/21 03:37:43;;;;;;;3.17;2.10;;;13.80;83.90;;;;;;5092841;28;20032;-67
2022/10/21 03:40:09;;;;;;;4.85;2.60;;;13.80;83.90;;;;;;5091803;28;20475;-67
2022/10/21 03:42:35;;;;;;;7.90;2.65;;;13.80;83.80;;;;;;5091622;28;20024;-67
2022/10/21 03:45:01;;;;;;;4.07;2.30;;;13.80;83.80;;;;;;5091600;28;20147;-69
2022/10/21 03:47:26;;;;;;;6.80;3.03;;;13.80;83.70;;;;;;5093315;28;20630;-69
2022/10/21 03:49:52;;;;;;;4.72;2.80;;;13.80;83.70;;;;;;5096025;28;20482;-69
2022/10/21 03:52:17;;;;;;;2.78;2.28;;;13.70;83.60;;;;;;5083495;28;20043;-69
2022/10/21 03:54:43;;;;;;;2.30;1.83;;;13.70;83.60;;;;;;5093411;28;20026;-66
2022/10/21 03:57:09;;;;;;;2.53;2.20;;;13.70;83.60;;;;;;5092040;28;20028;-66
2022/10/21 03:59:34;;;;;;;5.65;2.25;;;13.70;83.50;;;;;;5091202;28;20107;-67
2022/10/21 04:02:00;;;;;;;5.68;2.47;;;13.70;83.50;;;;;;5091402;28;20061;-67
2022/10/21 04:04:26;;;;;;;5.07;2.80;;;13.60;83.40;;;;;;5090887;28;20039;-66
2022/10/21 04:06:51;;;;;;;4.55;2.33;;;13.60;83.40;;;;;;5090594;28;20030;-67
2022/10/21 04:09:17;;;;;;;3.65;2.60;;;13.60;83.50;;;;;;5083294;28;20017;-66
2022/10/21 04:11:43;;;;;;;2.53;1.88;;;13.60;83.40;;;;;;5098957;28;20426;-67
2022/10/21 04:14:08;;;;;;;2.90;2.13;;;13.60;83.40;;;;;;5085150;28;20044;-67
2022/10/21 04:16:34;;;;;;;2.83;2.10;;;13.60;83.40;;;;;;5086128;28;20032;-67
2022/10/21 04:19:01;;;;;;;3.03;2.33;;;13.50;83.40;;;;;;5091408;28;20485;-69
2022/10/21 04:21:26;;;;;;;4.05;2.60;;;13.50;83.40;;;;;;5086320;28;20036;-69
2022/10/21 04:23:52;;;;;;;3.03;2.05;;;13.50;83.40;;;;;;5092274;28;20033;-69
2022/10/21 04:26:18;;;;;;;9.45;3.03;;;13.50;83.40;;;;;;5074020;28;20070;-69
2022/10/21 04:28:43;;;;;;;2.65;2.25;;;13.50;83.40;;;;;;5095025;28;20077;-69
2022/10/21 04:31:09;;;;;;;4.30;2.53;;;13.40;83.40;;;;;;5094295;28;20031;-69
2022/10/21 04:33:34;;;;;;;7.18;2.35;;;13.40;83.30;;;;;;5090329;28;20032;-69
2022/10/21 04:36:00;;;;;;;4.18;2.30;;;13.40;83.40;;;;;;5091953;28;20043;-69
2022/10/21 04:38:27;;;;;;;2.92;2.13;;;13.40;83.40;;;;;;5089358;28;20031;-69
2022/10/21 04:41:01;;;;;;;4.18;2.90;;;13.40;83.40;;;;;;5094722;28;20020;-69
2022/10/21 04:43:27;;;;;;;6.97;2.67;;;13.40;83.30;;;;;;5090576;28;20126;-68
2022/10/21 04:45:53;;;;;;;4.45;3.05;;;13.30;83.40;;;;;;5106876;28;20106;-69
2022/10/21 04:48:20;;;;;;;3.42;2.33;;;13.30;83.40;;;;;;5081893;28;20484;-67
2022/10/21 04:50:52;;;;;;;4.30;2.80;;;13.30;83.40;;;;;;5083110;28;20029;-67
2022/10/21 04:53:18;;;;;;;4.90;2.45;;;13.30;83.30;;;;;;5090188;28;20051;-67
2022/10/21 04:55:44;;;;;;;5.50;2.58;;;13.30;83.30;;;;;;5090509;28;20395;-67
2022/10/21 04:58:10;;;;;;;4.43;2.83;;;13.30;83.30;;;;;;5068174;28;20055;-67
2022/10/21 05:00:35;;;;;;;3.60;2.50;;;13.20;83.20;;;;;;5072931;28;21584;-66
2022/10/21 05:03:01;;;;;;;3.60;2.28;;;13.20;83.20;;;;;;5089106;28;20024;-67
2022/10/21 05:05:27;;;;;;;2.95;1.90;;;13.20;83.10;;;;;;5082863;28;20085;-67
2022/10/21 05:07:53;;;;;;;9.30;2.35;;;13.20;83.10;;;;;;5072394;28;20036;-67
2022/10/21 05:10:18;;;;;;;4.95;2.20;;;13.20;83.10;;;;;;5079780;28;20051;-66
2022/10/21 05:12:45;;;;;;;3.15;2.03;;;13.20;83.10;;;;;;5083200;28;20028;-67
2022/10/21 05:15:12;;;;;;;3.47;2.40;;;13.10;83.00;;;;;;5079135;28;20395;-66
2022/10/21 05:17:38;;;;;;;3.83;2.80;;;13.10;83.00;;;;;;5078784;28;20039;-69
2022/10/21 05:20:06;;;;;;;3.38;2.00;;;13.10;83.00;;;;;;5083881;28;20111;-68
2022/10/21 05:22:32;;;;;;;3.28;2.08;;;13.10;83.10;;;;;;5089177;28;20030;-69
2022/10/21 05:24:57;;;;;;;4.80;2.78;;;13.10;83.00;;;;;;5083598;28;20036;-68
2022/10/21 05:27:23;;;;;;;3.05;2.20;;;13.10;83.00;;;;;;5082372;28;20025;-68
2022/10/21 05:29:49;;;;;;;6.25;2.92;;;13.10;83.00;;;;;;5089171;28;20028;-68
2022/10/21 05:32:14;;;;;;;3.60;2.45;;;13.00;82.90;;;;;;5086807;28;20032;-68
2022/10/21 05:34:40;;;;;;;3.15;2.30;;;13.00;83.00;;;;;;5090122;28;20086;-69
2022/10/21 05:37:06;;;;;;;3.75;2.50;;;13.00;83.00;;;;;;5089983;28;20028;-69
2022/10/21 05:39:31;;;;;;;3.85;2.75;;;13.00;83.00;;;;;;5093966;28;20059;-69
2022/10/21 05:41:57;;;;;;;3.60;2.53;;;13.00;83.00;;;;;;5091709;28;20441;-68
2022/10/21 05:44:23;;;;;;;3.25;2.22;;;13.00;83.00;;;;;;5102160;28;20044;-69
2022/10/21 05:46:48;;;;;;;5.07;2.70;;;13.00;83.00;;;;;;5089189;28;20074;-68
2022/10/21 05:49:14;;;;;;;2.80;2.35;;;13.00;83.00;;;;;;5089290;28;20036;-68
2022/10/21 05:51:40;;;;;;;2.90;2.30;;;13.00;82.90;;;;;;5099759;28;20114;-68
2022/10/21 05:54:05;;;;;;;3.45;2.60;;;13.00;83.00;;;;;;5099169;28;20063;-68
2022/10/21 05:56:31;;;;;;;4.82;2.92;;;13.00;83.00;;;;;;5105543;28;20032;-68
2022/10/21 05:58:57;;;;;;;4.47;2.47;;;13.00;83.10;;;;;;5088807;28;20055;-68
2022/10/21 06:01:23;;;;;;;3.95;2.72;;;12.90;83.10;;;;;;5106055;28;20024;-68
2022/10/21 06:03:48;;;;;;;7.70;2.72;;;12.90;83.20;;;;;;5089768;28;20029;-68
2022/10/21 06:06:14;;;;;;;5.60;3.50;;;12.90;83.30;;;;;;5096970;28;20028;-68
2022/10/21 06:08:40;;;;;;;4.15;2.85;;;12.90;83.30;;;;;;5081053;28;20116;-66
2022/10/21 06:11:12;;;;;;;2.50;2.30;;;12.90;83.30;;;;;;5075836;28;20127;-66
2022/10/21 06:13:38;;;;;;;2.83;2.08;;;12.90;83.20;;;;;;5085889;28;20072;-66
2022/10/21 06:16:05;;;;;;;3.58;2.58;;;12.90;83.30;;;;;;5086173;28;20021;-66
2022/10/21 06:18:31;;;;;;;3.30;2.17;;;12.90;83.20;;;;;;5074017;28;20032;-66
2022/10/21 06:20:56;;;;;;;5.60;2.50;;;13.00;83.30;;;;;;5085661;28;20036;-67
2022/10/21 06:23:23;;;;;;;3.53;2.53;;;13.00;83.20;;;;;;5085971;28;20100;-66
2022/10/21 06:25:58;;;;;;;2.92;2.08;;;13.00;83.20;;;;;;5087755;28;20040;-68
2022/10/21 06:28:25;;;;;;;2.08;1.52;;;13.00;83.20;;;;;;5087212;28;20091;-68
2022/10/21 06:30:50;;;;;;;2.25;2.03;;;13.00;83.10;;;;;;5090011;28;20488;-68
2022/10/21 06:33:16;;;;;;;2.53;2.00;;;13.00;83.10;;;;;;5081930;28;20154;-68
2022/10/21 06:35:42;;;;;;;3.20;2.00;;;13.00;83.00;;;;;;5087016;28;20157;-68
2022/10/21 06:38:08;;;;;;;4.82;2.22;;;13.10;83.10;;;;;;5084351;28;20077;-68
2022/10/21 06:40:33;;;;;;;2.70;2.03;;;13.10;83.00;;;;;;5085473;28;20033;-68
2022/10/21 06:43:00;;;;;;;3.47;2.90;;;13.10;83.00;;;;;;5090343;28;20028;-68
2022/10/21 06:45:25;;;;;;;6.75;2.20;;;13.10;83.00;;;;;;5082194;28;20055;-68
2022/10/21 06:47:51;;;;;;;3.53;3.08;;;13.10;83.10;;;;;;5090575;28;20492;-68
2022/10/21 06:50:17;;;;;;;4.40;2.53;;;13.20;83.70;;;;;;5089391;28;20115;-71
2022/10/21 06:52:43;;;;;;;3.20;2.50;;;13.20;83.20;;;;;;5090469;28;20111;-71
2022/10/21 06:55:09;;;;;;;8.77;2.55;;;13.20;83.20;;;;;;5086930;28;20078;-71
2022/10/21 06:57:35;;;;;;;3.03;2.08;;;13.20;83.30;;;;;;5093210;28;20048;-65
2022/10/21 07:00:01;;;;;;;4.35;2.53;;;13.30;83.30;;;;;;5078564;28;20036;-65
2022/10/21 07:02:26;;;;;;;4.90;3.03;;;13.30;83.30;;;;;;5073484;28;20035;-65
2022/10/21 07:04:52;;;;;;;3.63;2.05;;;13.40;83.30;;;;;;5075910;28;20543;-65
2022/10/21 07:07:18;;;;;;;3.95;2.38;;;13.50;83.30;;;;;;5091885;28;20124;-65
2022/10/21 07:09:44;;;;;;;2.78;2.15;;;13.50;83.20;;;;;;5086899;28;20619;-71
2022/10/21 07:12:10;;;;;;;3.45;2.45;;;13.60;83.30;;;;;;5091570;28;20475;-70
2022/10/21 07:14:36;;;;;;;3.03;1.95;;;13.60;83.20;;;;;;5094053;28;20036;-65
2022/10/21 07:17:02;;;;;;;2.97;2.08;;;13.60;83.20;;;;;;5088073;28;20063;-65
2022/10/21 07:19:28;;;;;;;3.75;2.35;;;13.70;83.20;;;;;;5089927;28;20067;-65
2022/10/21 07:21:54;;;;;;;1.67;1.33;;;13.70;83.20;;;;;;5079755;28;20064;-71
2022/10/21 07:24:19;;;;;;;2.97;1.88;;;13.80;83.20;;;;;;5082355;28;20431;-65
2022/10/21 07:26:46;;;;;;;2.83;2.22;;;13.80;83.20;;;;;;5096080;28;20028;-65
2022/10/21 07:29:12;;;;;;;4.03;2.22;;;13.80;83.20;;;;;;5081610;28;20462;-71
2022/10/21 07:31:38;;;;;;;2.60;2.13;;;13.90;83.30;;;;;;5094128;28;20111;-70
2022/10/21 07:34:06;;;;;;;4.38;2.30;;;13.90;83.20;;;;;;5088676;28;20023;-71
2022/10/21 07:36:35;;;;;;;3.92;2.70;;;14.00;83.30;;;;;;5095595;28;20033;-71
2022/10/21 07:39:05;;;;;;;3.85;2.60;;;14.00;83.30;;;;;;5071601;28;20506;-71
2022/10/21 07:41:34;;;;;;;5.45;3.17;;;14.10;83.30;;;;;;5077361;28;20028;-72
2022/10/21 07:44:00;;;;;;;3.80;2.72;;;14.10;83.20;;;;;;5083635;28;20027;-71
2022/10/21 07:46:27;;;;;;;3.00;2.33;;;14.20;83.30;;;;;;5084556;28;20043;-72
2022/10/21 07:48:52;;;;;;;5.32;2.78;;;14.30;83.30;;;;;;5090857;28;20020;-71
2022/10/21 07:51:20;;;;;;;4.10;2.47;;;14.30;83.30;;;;;;5095951;28;20042;-65
2022/10/21 07:53:53;;;;;;;6.03;2.85;;;14.40;83.20;;;;;;5091257;28;20020;-66
2022/10/21 07:56:28;;;;;;;2.08;1.75;;;14.50;83.20;;;;;;5093299;28;20039;-66
2022/10/21 07:58:55;;;;;;;1.92;1.73;;;14.50;83.10;;;;;;5082166;28;20524;-66
2022/10/21 08:01:20;;;;;;;4.30;2.50;;;14.60;83.20;;;;;;5094895;28;20024;-65
2022/10/21 08:03:47;;;;;;;2.83;1.95;;;14.60;83.20;;;;;;5084326;28;21198;-66
2022/10/21 08:06:14;;;;;;;2.75;2.30;;;14.70;83.20;;;;;;5080815;28;20047;-66
2022/10/21 08:08:40;;;;;;;2.20;1.85;;;14.70;83.20;;;;;;5087995;28;20534;-65
2022/10/21 08:11:07;;;;;;;3.17;2.38;;;14.80;83.20;;;;;;5090672;28;20099;-71
2022/10/21 08:13:33;;;;;;;3.08;1.58;;;14.90;83.20;;;;;;5089280;28;20491;-71
2022/10/21 08:16:00;;;;;;;3.95;2.25;;;14.90;83.20;;;;;;5087591;28;20472;-71
2022/10/21 08:18:26;;;;;;;3.22;2.80;;;15.00;83.20;;;;;;5088359;28;20059;-71
2022/10/21 08:20:53;;;;;;;3.45;2.10;;;15.10;83.10;;;;;;5090883;28;20032;-71
2022/10/21 08:23:20;;;;;;;3.70;2.33;;;15.10;83.20;;;;;;5075327;28;20162;-65
2022/10/21 08:25:48;;;;;;;2.80;1.88;;;15.20;83.20;;;;;;5081436;28;20482;-71
2022/10/21 08:28:14;;;;;;;3.30;2.22;;;15.20;83.10;;;;;;5095370;28;20082;-71
2022/10/21 08:30:41;;;;;;;5.03;2.50;;;15.30;83.10;;;;;;5093041;28;20398;-71
2022/10/21 08:33:07;;;;;;;3.10;2.13;;;15.40;83.10;;;;;;5085641;28;20103;-65
2022/10/21 08:35:32;;;;;;;6.57;2.08;;;15.40;83.10;;;;;;5100982;28;20729;-65
2022/10/21 08:37:58;;;;;;;4.88;2.95;;;15.50;83.10;;;;;;5088549;28;20395;-65
2022/10/21 08:40:24;;;;;;;3.05;1.85;;;15.50;83.00;;;;;;5068229;28;20055;-65
2022/10/21 08:42:51;;;;;;;4.60;1.95;;;15.60;83.00;;;;;;5082834;28;20024;-65
2022/10/21 08:45:33;;;;;;;3.63;3.03;;;15.70;83.10;;;;;;5089993;28;20051;-65
2022/10/21 08:48:04;;;;;;;7.18;2.35;;;15.70;83.10;;;;;;5084225;28;20009;-71
2022/10/21 08:50:36;;;;;;;2.50;2.03;;;15.80;83.10;;;;;;5077961;28;20032;-71
2022/10/21 08:53:19;;;;;;;5.97;3.03;;;15.80;83.10;;;;;;5093428;28;20023;-71
2022/10/21 08:55:45;;;;;;;5.35;3.08;;;15.80;83.10;;;;;;5086282;28;20039;-65
2022/10/21 08:58:17;;;;;;;21.70;2.63;;;15.80;83.10;;;;;;5087244;28;20028;-65
2022/10/21 09:01:06;;;;;;;3.00;2.70;;;15.90;83.20;;;;;;5098360;28;20487;-65
2022/10/21 09:03:46;;;;;;;2.95;2.45;;;15.90;83.20;;;;;;5081366;28;20051;-65
2022/10/21 09:06:18;;;;;;;3.90;2.75;;;15.90;83.40;;;;;;5080763;28;20024;-65
2022/10/21 09:09:16;;;;;;;3.97;2.83;;;15.90;83.40;;;;;;5090747;28;20024;-66
2022/10/21 09:12:18;;;;;;;4.18;2.40;;;15.90;83.50;;;;;;5044217;28;20138;-65
2022/10/21 09:15:10;;;;;;;5.70;2.45;;;16.00;83.40;;;;;;5086936;28;20538;-65
2022/10/21 09:18:04;;;;;;;7.15;2.45;;;16.00;83.40;;;;;;5058258;28;20401;-65
2022/10/21 09:21:23;;;;;;;3.60;2.40;;;16.00;83.60;;;;;;5083040;28;20031;-65
2022/10/21 09:23:57;;;;;;;3.80;1.92;;;16.00;83.60;;;;;;5006616;28;20552;-67
2022/10/21 09:26:35;;;;;;;3.50;1.83;;;16.00;83.70;;;;;;5007795;28;20034;-73
2022/10/21 09:29:17;;;;;;;2.88;2.05;;;16.00;84.20;;;;;;5053083;28;20372;-73
2022/10/21 09:31:43;;;;;;;3.60;2.42;;;16.00;84.20;;;;;;5085614;28;20669;-73
2022/10/21 09:34:32;;;;;;;2.70;2.00;;;16.00;83.60;;;;;;5084211;28;20479;-73
2022/10/21 09:36:59;;;;;;;3.25;2.60;;;16.10;83.60;;;;;;5088602;28;20023;-73
2022/10/21 09:39:37;;;;;;;2.80;2.15;;;16.10;83.70;;;;;;5086942;28;20605;-73
2022/10/21 09:42:05;;;;;;;3.17;1.80;;;16.10;83.80;;;;;;5096925;28;20069;-73
2022/10/21 09:44:30;;;;;;;4.32;2.53;;;16.20;83.70;;;;;;5090664;28;20478;-73
2022/10/21 09:46:56;;;;;;;3.63;1.98;;;16.20;83.60;;;;;;5083269;28;20111;-73
2022/10/21 09:49:46;;;;;;;3.00;2.15;;;16.20;83.60;;;;;;5088651;28;20111;-73
2022/10/21 09:52:13;;;;;;;3.53;2.20;;;16.30;83.50;;;;;;5095424;28;20477;-73
2022/10/21 09:54:41;;;;;;;2.85;2.28;;;16.20;84.10;;;;;;5084981;28;20467;-73
2022/10/21 09:57:16;;;;;;;2.70;1.63;;;16.30;83.60;;;;;;5083007;28;20517;-73
2022/10/21 10:00:01;;;;;;;2.72;1.80;;;16.30;83.60;;;;;;5091306;28;20032;-73
2022/10/21 10:02:44;;;;;;;1.67;1.55;;;16.30;83.60;;;;;;5086759;28;20028;-73
2022/10/21 10:05:37;;;;;;;2.78;1.77;;;16.20;83.80;;;;;;5079253;28;20457;-66
2022/10/21 10:08:38;;;;;;;3.58;1.83;;;16.30;83.80;;;;;;5089136;28;20107;-66
2022/10/21 10:11:14;;;;;;;1.98;1.73;;;16.30;83.80;;;;;;5023761;28;20056;-66
2022/10/21 10:13:52;;;;;;;2.25;1.60;;;16.20;83.80;;;;;;5077283;28;20487;-66
2022/10/21 10:16:21;;;;;;;2.25;1.30;;;16.30;83.90;;;;;;5083732;28;20478;-66
2022/10/21 10:18:48;;;;;;;2.42;1.38;;;16.30;83.90;;;;;;5079110;28;20033;-66
2022/10/21 10:21:17;;;;;;;2.80;1.58;;;16.30;83.90;;;;;;5086250;28;20028;-66
2022/10/21 10:23:55;;;;;;;3.20;1.83;;;16.40;83.90;;;;;;5087443;28;20032;-66
2022/10/21 10:26:39;;;;;;;3.33;2.22;;;16.50;83.80;;;;;;5091056;28;20028;-66
2022/10/21 10:29:26;;;;;;;2.63;2.15;;;16.50;83.80;;;;;;5090427;28;20032;-66
2022/10/21 10:31:58;;;;;;;3.20;2.10;;;16.60;83.90;;;;;;5083234;28;20059;-73
2022/10/21 10:34:34;;;;;;;2.28;1.80;;;16.60;84.00;;;;;;5081237;28;20029;-73
2022/10/21 10:37:17;;;;;;;1.75;1.33;;;16.70;83.90;;;;;;5085735;28;20028;-73
2022/10/21 10:39:46;;;;;;;1.92;1.65;;;16.80;83.80;;;;;;5084529;28;20497;-73
2022/10/21 10:42:33;;;;;;;3.08;1.88;;;16.80;83.80;;;;;;5088092;28;20031;-73
2022/10/21 10:45:12;;;;;;;2.15;1.70;;;16.80;83.80;;;;;;5097798;28;20044;-73
2022/10/21 10:47:46;;;;;;;2.20;1.63;;;16.80;83.90;;;;;;5088476;28;20032;-73
2022/10/21 10:50:48;;;;;;;1.25;1.15;;;16.90;84.10;;;;;;5087315;28;20023;-73
2022/10/21 10:53:22;;;;;;;2.47;2.03;;;16.90;84.00;;;;;;5086932;28;20046;-66
2022/10/21 10:55:58;;;;;;;2.67;1.83;;;16.90;84.10;;;;;;5084259;28;20420;-66
2022/10/21 10:58:28;;;;;;;1.38;1.27;;;17.00;84.20;;;;;;5086428;28;20467;-66
2022/10/21 11:00:58;;;;;;;3.83;2.00;;;17.00;84.20;;;;;;5084894;28;20074;-67
2022/10/21 11:03:37;;;;;;;1.42;1.33;;;17.10;84.20;;;;;;5077153;28;20032;-66
2022/10/21 11:06:15;;;;;;;2.75;2.03;;;17.10;84.20;;;;;;5085977;28;20107;-67
2022/10/21 11:08:55;;;;;;;3.05;2.00;;;17.10;84.20;;;;;;5074062;28;20029;-66
2022/10/21 11:11:45;;;;;;;2.85;1.60;;;17.10;84.20;;;;;;5085703;28;20032;-73
2022/10/21 11:14:14;;;;;;;4.22;1.83;;;17.10;84.20;;;;;;5087562;28;20047;-73
2022/10/21 11:17:02;;;;;;;3.20;1.65;;;17.20;84.30;;;;;;5089721;28;20016;-73
2022/10/21 11:19:49;;;;;;;3.38;1.75;;;17.20;84.10;;;;;;5081206;28;20538;-73
2022/10/21 11:22:27;;;;;;;2.60;1.48;;;17.30;84.10;;;;;;5079896;28;20034;-73
2022/10/21 11:25:06;;;;;;;4.80;1.70;;;17.30;84.30;;;;;;5080758;28;20028;-73
2022/10/21 11:27:37;;;;;;;1.77;1.30;;;17.30;84.20;;;;;;5089501;28;20032;-73
2022/10/21 11:30:16;;;;;;;2.15;1.67;;;17.30;84.20;;;;;;5098929;28;20095;-73
2022/10/21 11:33:01;;;;;;;1.77;1.48;;;17.30;84.20;;;;;;5091317;28;20091;-73
2022/10/21 11:35:56;;;;;;;3.70;1.60;;;17.40;84.30;;;;;;5089210;28;20047;-71
2022/10/21 11:38:59;;;;;;;3.15;1.80;;;17.50;84.40;;;;;;5102276;28;20047;-71
2022/10/21 11:42:17;;;;;;;1.73;1.48;;;17.60;84.60;;;;;;5090243;28;20142;-71
2022/10/21 11:44:52;;;;;;;3.55;1.60;;;17.70;84.50;;;;;;5046632;28;20085;-71
2022/10/21 11:47:59;;;;;;;4.95;2.17;;;17.80;84.50;;;;;;5097523;28;20107;-72
2022/10/21 11:50:34;;;;;;;2.08;1.70;;;18.00;84.50;;;;;;5097043;28;20489;-72
2022/10/21 11:53:11;;;;;;;3.53;2.03;;;18.40;84.30;;;;;;5110937;28;20023;-72
2022/10/21 11:56:04;;;;;;;2.70;1.40;;;18.90;83.90;;;;;;5096694;28;20043;-73
2022/10/21 11:58:58;;;;;;;4.47;2.03;;;19.20;83.10;;;;;;5085317;28;20040;-72
2022/10/21 12:01:36;;;;;;;4.38;1.95;;;19.60;82.60;;;;;;5109536;28;20023;-72
2022/10/21 12:04:32;;;;;;;4.25;1.73;;;19.90;82.30;;;;;;5105683;28;20029;-71
2022/10/21 12:07:19;;;;;;;3.33;2.47;;;20.10;82.00;;;;;;5070824;28;20031;-72
2022/10/21 12:09:58;;;;;;;2.78;2.30;;;20.20;81.40;;;;;;5111184;28;20019;-72
2022/10/21 12:12:35;;;;;;;2.55;1.85;;;20.40;81.50;;;;;;5095878;28;20028;-72
2022/10/21 12:15:03;;;;;;;2.97;1.90;;;20.70;81.50;;;;;;5104782;28;20097;-72
2022/10/21 12:17:32;;;;;;;3.20;1.65;;;21.20;80.80;;;;;;5112734;28;20031;-65
2022/10/21 12:20:05;;;;;;;2.08;1.65;;;22.00;78.80;;;;;;5098619;28;20028;-66
2022/10/21 12:22:33;;;;;;;2.67;1.73;;;22.70;76.00;;;;;;5089731;28;20081;-66
2022/10/21 12:24:58;;;;;;;2.92;1.60;;;23.00;75.20;;;;;;5107868;28;20105;-66
2022/10/21 12:27:29;;;;;;;1.25;1.10;;;23.00;75.00;;;;;;5093389;28;20098;-65
2022/10/21 12:30:18;;;;;;;2.55;0.82;;;22.70;75.00;;;;;;5095433;28;20020;-65
2022/10/21 12:33:03;;;;;;;2.85;1.83;;;22.20;75.60;;;;;;5098150;28;20031;-66
2022/10/21 12:35:49;;;;;;;2.67;1.70;;;21.80;76.50;;;;;;5108232;28;20027;-66
2022/10/21 12:38:44;;;;;;;1.10;1.00;;;21.60;77.20;;;;;;5111639;28;20035;-66
2022/10/21 12:41:33;;;;;;;2.65;1.23;;;21.50;77.40;;;;;;5097424;28;20123;-66
2022/10/21 12:44:02;;;;;;;2.80;1.65;;;21.30;77.70;;;;;;5100755;28;20036;-66
2022/10/21 12:46:42;;;;;;;1.48;1.10;;;21.20;78.20;;;;;;5092928;28;20036;-72
2022/10/21 12:49:25;;;;;;;1.55;1.00;;;21.20;78.40;;;;;;5084277;28;20894;-72
2022/10/21 12:51:56;;;;;;;1.23;1.10;;;21.50;77.50;;;;;;5096338;28;20020;-72
2022/10/21 12:54:28;;;;;;;1.33;1.10;;;21.60;77.10;;;;;;5090893;28;20036;-72
2022/10/21 12:57:06;;;;;;;1.50;1.40;;;21.70;77.10;;;;;;5091397;28;20024;-72
2022/10/21 12:59:38;;;;;;;1.58;0.98;;;21.70;77.10;;;;;;5108169;28;20028;-72
2022/10/21 13:02:04;;;;;;;3.45;1.13;;;21.70;77.00;;;;;;5108728;28;20106;-72
2022/10/21 13:04:32;;;;;;;1.58;1.25;;;21.50;77.30;;;;;;5110572;28;20550;-72
2022/10/21 13:07:24;;;;;;;2.28;1.35;;;21.40;77.40;;;;;;5111491;28;20094;-72
2022/10/21 13:09:49;;;;;;;1.90;1.50;;;21.20;77.80;;;;;;5107282;28;20042;-72
2022/10/21 13:12:24;;;;;;;5.97;1.92;;;20.90;77.90;;;;;;5111321;28;20023;-72